Eldridge, IA

3:11 PM CST on February 14, 2016 (GMT -0600)
West Hickory Street | | Change Station
CLOSE
Current Station
Personal Weather Station
Location: Eldridge, IA
Elevation: 774 ft
Nearby Weather Stations
Active Advisory: Winter Weather Advisory Active Notice: Local Storm Report

Elev 774 ft 41.65 °N, 90.59 °W | Updated 12 minutes ago

Snow
Snow
19.9 °F
Feels Like 9 °F
N
9.0
Wind Variable Wind from SE
Gusts 18.0 mph

Today
High -- | Low -- °F
--% Chance of Precip.
Yesterday
High -- | Low -- °F
Precip. -- in
Pressure 30.03 in
Visibility 2.0 miles
Clouds Scattered Clouds 1300 ft
Mostly Cloudy 2200 ft
Overcast 3000 ft
Windchill 9 °F
Dew Point 17 °F
Humidity 87%
Rainfall 0.00 in
Snow Depth Not available.
6:59 AM 5:33 PM
Waxing Crescent, 45% visible
METAR KDVN 142052Z AUTO 13017KT 2SM -SN SCT013 BKN022 OVC030 M07/M10 A2999 RMK AO2 SLP167 P0000 60000 T10671100 56036 $
Pressure 30.03 in
Visibility 2.0 miles
Clouds Scattered Clouds 1300 ft
Mostly Cloudy 2200 ft
Overcast 3000 ft
Windchill 9 °F
Dew Point 17 °F
Humidity 87%
Rainfall 0.00 in
Snow Depth Not available.
6:59 AM 5:33 PM
Waxing Crescent, 45% visible
METAR KDVN 142052Z AUTO 13017KT 2SM -SN SCT013 BKN022 OVC030 M07/M10 A2999 RMK AO2 SLP167 P0000 60000 T10671100 56036 $

10-Day Weather Forecast

Almanac

Astronomy

Feb. 14, 2016 Rise Set
Actual Time
Civil Twilight
Nautical Twilight
Astronomical Twilight
Moon
Length of Visible Light
Length of Day
Tomorrow will be .
, % of the Moon is Illuminated

Today's Extremes

State Highs State Lows

Community

WunderPhotos

Upload Photos

1,892,886 photos uploaded!

WunderBlog® & News

Nearby

Air Quality

  Air Quality AQ Index Pollutant
Not available.

Snow Depth

Station Depth Elevation

Earthquake Activity

City Distance Mag. Time & Date
Minimum magnitude displayed is 2.5.

Coastal Water Temperatures

Place Temperature

Stations

Nearby Weather Stations

Station Location Temp. Windchill Dew Point Humidity Wind Precip. Elev Updated Type
                   

Watches & Warnings

Winter Weather Advisory
Issued: 2:56 PM CST Feb. 14, 2016 – National Weather Service

... Winter Weather Advisory remains in effect until 6 PM CST this
evening...

* timing... through much of the day... diminishing by late afternoon.

* Snow accumulations... 2 to 5 inches.

* Wind... southeast 10 to 15 mph with gusts up to 20 mph.

* Visibilities... less than a mile in the heavier snow at times.

* Impacts... snow covered and hazardous roads and low visibility
in heavier snowfall. Drifting snow possible this morning.

Precautionary/preparedness actions...

A Winter Weather Advisory for snow means that periods of snow
will cause travel difficulties. Be prepared for slick... snow
covered roads and limited visibilities... and be careful while
driving.